Time;durP1;ratioP1;P1;durP2;ratioP2;P2;SDS_P1;SDS_P2;PMS_P1;PMS_P2;Temp;Humidity;BMP_temperature;BMP_pressure;BME280_temperature;BME280_humidity;BME280_pressure;Samples;Min_cycle;Max_cycle;Signal;HPM_P1;HPM_P2
2022/04/11 00:01:43;;;;;;;9.07;6.07;;;2.60;99.90;;;;;;4999254;28;20213;-48
2022/04/11 00:04:09;;;;;;;10.23;6.03;;;2.50;99.90;;;;;;4999172;28;20236;-47
2022/04/11 00:06:35;;;;;;;10.07;6.77;;;2.40;99.90;;;;;;5015799;28;20210;-47
2022/04/11 00:09:01;;;;;;;7.67;5.90;;;2.40;99.90;;;;;;5007380;28;20175;-46
2022/04/11 00:11:27;;;;;;;8.33;6.10;;;2.40;99.90;;;;;;4996437;28;20253;-46
2022/04/11 00:13:53;;;;;;;7.53;6.23;;;2.40;99.90;;;;;;4996344;28;20174;-46
2022/04/11 00:16:19;;;;;;;7.57;5.93;;;2.40;99.90;;;;;;5016770;28;20205;-45
2022/04/11 00:18:45;;;;;;;8.70;5.80;;;2.40;99.90;;;;;;5024254;28;20277;-45
2022/04/11 00:21:11;;;;;;;8.23;5.73;;;2.40;99.90;;;;;;5015824;28;20293;-46
2022/04/11 00:23:37;;;;;;;9.87;6.00;;;2.40;99.90;;;;;;4999126;28;20181;-46
2022/04/11 00:26:04;;;;;;;8.33;5.30;;;2.40;99.90;;;;;;5015916;28;20218;-46
2022/04/11 00:28:31;;;;;;;6.87;6.13;;;2.40;99.90;;;;;;5017732;28;20236;-45
2022/04/11 00:30:58;;;;;;;8.60;6.50;;;2.40;99.90;;;;;;5032029;28;20235;-45
2022/04/11 00:33:24;;;;;;;6.97;5.33;;;2.40;99.90;;;;;;5031885;28;20178;-46
2022/04/11 00:35:51;;;;;;;5.73;5.23;;;2.40;99.90;;;;;;5015759;28;20194;-46
2022/04/11 00:38:17;;;;;;;7.40;5.80;;;2.30;99.90;;;;;;5015513;28;20213;-46
2022/04/11 00:40:43;;;;;;;6.57;5.30;;;2.30;99.90;;;;;;5027286;28;20657;-46
2022/04/11 00:43:09;;;;;;;8.50;6.30;;;2.40;99.90;;;;;;5015389;28;20189;-46
2022/04/11 00:45:35;;;;;;;8.67;6.03;;;2.30;99.90;;;;;;5015187;28;20202;-46
2022/04/11 00:48:03;;;;;;;8.77;6.03;;;2.40;99.90;;;;;;5014895;28;20321;-45
2022/04/11 00:50:31;;;;;;;9.50;6.17;;;2.30;99.90;;;;;;5014944;28;20190;-46
2022/04/11 00:52:59;;;;;;;9.90;6.60;;;2.30;99.90;;;;;;5015202;28;20259;-46
2022/04/11 00:55:25;;;;;;;9.80;6.07;;;2.20;99.90;;;;;;5015466;28;20196;-45
2022/04/11 00:57:51;;;;;;;8.43;6.17;;;2.20;99.90;;;;;;5013685;28;20178;-46
2022/04/11 01:00:17;;;;;;;7.87;6.00;;;2.20;99.90;;;;;;5014734;28;20186;-45
2022/04/11 01:02:44;;;;;;;7.37;6.10;;;2.20;99.90;;;;;;5031405;28;20214;-46
2022/04/11 01:05:11;;;;;;;7.53;5.73;;;2.10;99.90;;;;;;5031698;28;20290;-46
2022/04/11 01:07:39;;;;;;;6.83;5.90;;;2.00;99.90;;;;;;5031393;28;20208;-46
2022/04/11 01:10:06;;;;;;;9.13;6.47;;;1.90;99.90;;;;;;5015461;28;20185;-46
2022/04/11 01:12:33;;;;;;;9.77;6.30;;;1.80;99.90;;;;;;5032895;28;20172;-46
2022/04/11 01:14:59;;;;;;;6.57;5.70;;;1.80;99.90;;;;;;5021134;28;20201;-45
2022/04/11 01:17:35;;;;;;;9.60;6.83;;;1.80;99.90;;;;;;5015146;28;20266;-45
2022/04/11 01:20:12;;;;;;;8.27;5.87;;;1.70;99.90;;;;;;5032520;28;20180;-46
2022/04/11 01:22:39;;;;;;;7.70;6.00;;;1.70;99.90;;;;;;4998888;28;20190;-46
2022/04/11 01:25:07;;;;;;;9.23;6.73;;;1.70;99.90;;;;;;5014929;28;20211;-45
2022/04/11 01:27:33;;;;;;;10.23;7.23;;;1.60;99.90;;;;;;5015578;28;20249;-45
2022/04/11 01:30:00;;;;;;;12.47;7.70;;;1.60;99.90;;;;;;5032347;28;20259;-46
2022/04/11 01:32:28;;;;;;;11.07;7.80;;;1.60;99.90;;;;;;5019282;28;20178;-46
2022/04/11 01:34:57;;;;;;;8.97;7.43;;;1.70;99.90;;;;;;5014641;28;20194;-45
2022/04/11 01:37:24;;;;;;;10.50;7.87;;;1.60;99.90;;;;;;4998605;28;20188;-45
2022/04/11 01:39:50;;;;;;;8.30;6.80;;;1.60;99.90;;;;;;5014202;28;20189;-46
2022/04/11 01:42:16;;;;;;;12.63;8.27;;;1.60;99.90;;;;;;5014483;28;20197;-45
2022/04/11 01:44:42;;;;;;;10.00;7.40;;;1.70;99.90;;;;;;5014410;28;20193;-46
2022/04/11 01:47:08;;;;;;;9.87;7.50;;;1.80;99.90;;;;;;5014388;28;20209;-46
2022/04/11 01:49:36;;;;;;;9.87;7.50;;;1.70;99.90;;;;;;4997632;28;20207;-46
2022/04/11 01:52:03;;;;;;;9.87;7.17;;;1.70;99.90;;;;;;4994389;28;20264;-46
2022/04/11 01:54:31;;;;;;;9.80;7.03;;;1.70;99.90;;;;;;4994279;28;20216;-45
2022/04/11 01:56:57;;;;;;;8.47;7.60;;;1.60;99.90;;;;;;5002106;28;20186;-46
2022/04/11 01:59:23;;;;;;;11.43;8.00;;;1.60;99.90;;;;;;5013858;28;20193;-46
2022/04/11 02:01:49;;;;;;;9.23;7.53;;;1.70;99.90;;;;;;4997113;28;20183;-45
2022/04/11 02:04:15;;;;;;;9.53;7.50;;;1.70;99.90;;;;;;5013292;28;20215;-46
2022/04/11 02:06:42;;;;;;;10.57;7.60;;;1.80;99.90;;;;;;5013556;28;20220;-45
2022/04/11 02:09:09;;;;;;;9.27;8.10;;;1.90;99.90;;;;;;5013690;28;20186;-45
2022/04/11 02:11:35;;;;;;;9.40;7.90;;;1.80;99.90;;;;;;5013772;28;20642;-45
2022/04/11 02:14:01;;;;;;;13.17;8.37;;;1.90;99.90;;;;;;5014332;28;20178;-45
2022/04/11 02:16:27;;;;;;;11.77;7.93;;;1.90;99.90;;;;;;5012279;28;20209;-46
2022/04/11 02:18:53;;;;;;;11.17;8.33;;;2.00;99.90;;;;;;5030181;28;20182;-46
2022/04/11 02:21:19;;;;;;;12.40;8.13;;;2.00;99.90;;;;;;5013598;28;20179;-45
2022/04/11 02:23:46;;;;;;;8.67;7.07;;;2.00;99.90;;;;;;5029860;28;20235;-46
2022/04/11 02:26:13;;;;;;;11.67;7.40;;;2.10;99.90;;;;;;4998050;28;20215;-46
2022/04/11 02:28:40;;;;;;;16.40;7.80;;;2.10;99.90;;;;;;5003865;28;20656;-45
2022/04/11 02:31:06;;;;;;;9.57;7.43;;;2.10;99.90;;;;;;5025544;28;20178;-46
2022/04/11 02:33:32;;;;;;;9.10;6.43;;;2.10;99.90;;;;;;5028660;28;20232;-45
2022/04/11 02:35:58;;;;;;;9.70;6.97;;;2.10;99.90;;;;;;5007941;28;20284;-45
2022/04/11 02:38:24;;;;;;;9.23;6.90;;;2.10;99.90;;;;;;5013212;28;20216;-46
2022/04/11 02:40:51;;;;;;;10.07;7.00;;;2.10;99.90;;;;;;5013888;28;20262;-45
2022/04/11 02:43:21;;;;;;;9.73;7.10;;;2.20;99.90;;;;;;4998056;28;20207;-46
2022/04/11 02:45:52;;;;;;;8.50;6.93;;;2.10;99.90;;;;;;5002054;28;20241;-45
2022/04/11 02:48:24;;;;;;;13.23;7.27;;;2.00;99.90;;;;;;4994083;28;20229;-44
2022/04/11 02:50:57;;;;;;;9.73;7.33;;;2.10;99.90;;;;;;4993603;28;20190;-46
2022/04/11 02:53:29;;;;;;;9.93;6.73;;;2.00;99.90;;;;;;4994156;28;20181;-44
2022/04/11 02:55:55;;;;;;;10.27;6.77;;;2.00;99.90;;;;;;4994120;28;20275;-46
2022/04/11 02:58:21;;;;;;;9.53;6.33;;;2.00;99.90;;;;;;4997964;28;20191;-45
2022/04/11 03:00:47;;;;;;;7.87;6.67;;;2.00;99.90;;;;;;4996607;28;20271;-46
2022/04/11 03:03:13;;;;;;;9.40;6.90;;;2.00;99.90;;;;;;5012957;28;20266;-45
2022/04/11 03:05:42;;;;;;;7.70;6.30;;;2.00;99.90;;;;;;5013138;28;20205;-46
2022/04/11 03:08:09;;;;;;;7.73;6.27;;;2.00;99.90;;;;;;5012777;28;20189;-46
2022/04/11 03:10:37;;;;;;;10.00;7.33;;;2.00;99.90;;;;;;4987357;28;20198;-46
2022/04/11 03:13:05;;;;;;;9.13;7.00;;;1.90;99.90;;;;;;4997254;28;20189;-46
2022/04/11 03:15:33;;;;;;;10.07;7.03;;;1.80;99.90;;;;;;5008455;28;20208;-46
2022/04/11 03:18:00;;;;;;;11.33;7.23;;;1.60;99.90;;;;;;5016657;28;20182;-46
2022/04/11 03:20:26;;;;;;;10.23;7.80;;;1.60;99.90;;;;;;5016794;28;20188;-46
2022/04/11 03:22:53;;;;;;;10.10;7.30;;;1.50;99.90;;;;;;5017053;28;20179;-46
2022/04/11 03:25:19;;;;;;;10.20;7.50;;;1.50;99.90;;;;;;5001954;28;20765;-46
2022/04/11 03:27:46;;;;;;;9.63;7.77;;;1.40;99.90;;;;;;4997166;28;20246;-45
2022/04/11 03:30:13;;;;;;;10.60;7.30;;;1.50;99.90;;;;;;5031779;28;20190;-46
2022/04/11 03:32:40;;;;;;;13.13;8.13;;;1.50;99.90;;;;;;5026450;28;20173;-45
2022/04/11 03:35:10;;;;;;;9.90;7.03;;;1.50;99.90;;;;;;5002356;28;20193;-46
2022/04/11 03:37:38;;;;;;;10.90;7.67;;;1.50;99.90;;;;;;4998288;28;20187;-45
2022/04/11 03:40:14;;;;;;;11.57;7.47;;;1.50;99.90;;;;;;4998312;28;20185;-45
2022/04/11 03:42:40;;;;;;;9.27;7.30;;;1.50;99.90;;;;;;5000012;28;20753;-46
2022/04/11 03:45:10;;;;;;;8.60;7.27;;;1.50;99.90;;;;;;5016077;28;20212;-46
2022/04/11 03:47:38;;;;;;;10.37;7.40;;;1.50;99.90;;;;;;5032792;28;20200;-46
2022/04/11 03:50:07;;;;;;;9.23;7.70;;;1.50;99.90;;;;;;5015743;28;20176;-45
2022/04/11 03:52:36;;;;;;;11.33;7.70;;;1.50;99.90;;;;;;5014219;28;20182;-46
2022/04/11 03:55:08;;;;;;;11.53;8.10;;;1.50;99.90;;;;;;4997923;28;20230;-45
2022/04/11 03:57:34;;;;;;;11.37;7.37;;;1.50;99.90;;;;;;5014409;28;20258;-44
2022/04/11 04:00:02;;;;;;;10.60;7.07;;;1.50;99.90;;;;;;5030468;28;20197;-46
2022/04/11 04:02:31;;;;;;;9.10;7.53;;;1.60;99.90;;;;;;5027873;28;20580;-44
2022/04/11 04:04:58;;;;;;;10.40;7.50;;;1.60;99.90;;;;;;4996416;28;20211;-45
2022/04/11 04:07:25;;;;;;;10.80;7.80;;;1.60;99.90;;;;;;5008515;28;20207;-44
2022/04/11 04:09:52;;;;;;;8.83;7.43;;;1.60;99.90;;;;;;5015546;28;20529;-45
2022/04/11 04:12:20;;;;;;;9.87;7.13;;;1.50;99.90;;;;;;5014352;28;20219;-44
2022/04/11 04:14:58;;;;;;;12.80;7.90;;;1.60;99.90;;;;;;5000912;28;20206;-44
2022/04/11 04:17:25;;;;;;;7.87;6.50;;;1.50;99.90;;;;;;5015746;28;20180;-44
2022/04/11 04:19:59;;;;;;;8.80;6.70;;;1.50;99.90;;;;;;5000361;28;20212;-46
2022/04/11 04:22:25;;;;;;;8.53;6.73;;;1.50;99.90;;;;;;4982426;28;20207;-45
2022/04/11 04:24:51;;;;;;;10.33;7.40;;;1.40;99.90;;;;;;4996064;28;20265;-44
2022/04/11 04:27:17;;;;;;;12.13;7.20;;;1.40;99.90;;;;;;5011022;28;20203;-44
2022/04/11 04:29:43;;;;;;;10.23;7.60;;;1.40;99.90;;;;;;5019839;28;20208;-44
2022/04/11 04:32:09;;;;;;;9.77;7.10;;;1.30;99.90;;;;;;5009690;28;20219;-45
2022/04/11 04:34:37;;;;;;;9.03;7.23;;;1.30;99.90;;;;;;5001981;28;20184;-45
2022/04/11 04:37:04;;;;;;;9.83;7.40;;;1.20;99.90;;;;;;5019655;28;20186;-45
2022/04/11 04:39:30;;;;;;;8.90;7.30;;;1.20;99.90;;;;;;5003109;28;20177;-46
2022/04/11 04:41:58;;;;;;;9.43;7.07;;;1.10;99.90;;;;;;5012302;28;20184;-44
2022/04/11 04:44:24;;;;;;;10.13;7.20;;;1.10;99.90;;;;;;5018252;28;20188;-44
2022/04/11 04:46:55;;;;;;;13.63;8.30;;;1.00;99.90;;;;;;5013537;28;20232;-44
2022/04/11 04:49:25;;;;;;;10.80;8.07;;;0.90;99.90;;;;;;4999392;28;20187;-44
2022/04/11 04:51:57;;;;;;;11.37;8.23;;;0.90;99.90;;;;;;5004204;28;20191;-45
2022/04/11 04:54:25;;;;;;;10.03;7.53;;;0.80;99.90;;;;;;5004295;28;20204;-44
2022/04/11 04:56:53;;;;;;;10.70;8.00;;;0.80;99.90;;;;;;5001786;28;20211;-44
2022/04/11 04:59:24;;;;;;;12.47;8.80;;;0.80;99.90;;;;;;5024221;28;20192;-45
2022/04/11 05:01:51;;;;;;;11.67;8.97;;;0.80;99.90;;;;;;4996448;28;20179;-44
2022/04/11 05:04:18;;;;;;;10.73;8.40;;;0.80;99.90;;;;;;5006703;28;20188;-44
2022/04/11 05:06:44;;;;;;;11.80;8.37;;;0.80;99.90;;;;;;5014048;28;20204;-45
2022/04/11 05:09:12;;;;;;;11.80;8.60;;;0.90;99.90;;;;;;5013896;28;20180;-44
2022/04/11 05:11:44;;;;;;;10.30;7.70;;;1.00;99.90;;;;;;5009066;28;20180;-44
2022/04/11 05:14:10;;;;;;;10.50;8.20;;;1.00;99.90;;;;;;5029277;28;20179;-44
2022/04/11 05:16:37;;;;;;;21.07;13.57;;;1.00;99.90;;;;;;4996902;28;20258;-45
2022/04/11 05:19:06;;;;;;;34.50;19.47;;;1.00;99.90;;;;;;4999646;28;20205;-45
2022/04/11 05:21:33;;;;;;;40.90;22.23;;;1.00;99.90;;;;;;5014935;28;20184;-43
2022/04/11 05:23:59;;;;;;;70.87;35.33;;;1.00;99.90;;;;;;5026095;28;20181;-45
2022/04/11 05:26:25;;;;;;;54.43;27.37;;;1.00;99.90;;;;;;4999933;28;20203;-44
2022/04/11 05:28:51;;;;;;;39.07;20.60;;;1.00;99.90;;;;;;5029909;28;20265;-45
2022/04/11 05:31:19;;;;;;;21.97;12.47;;;1.00;99.90;;;;;;5009271;28;20181;-45
2022/04/11 05:33:46;;;;;;;17.03;10.70;;;1.00;99.90;;;;;;5031237;28;20188;-45
2022/04/11 05:36:15;;;;;;;18.17;11.50;;;1.00;99.90;;;;;;4994733;28;20201;-44
2022/04/11 05:38:41;;;;;;;13.40;9.27;;;1.10;99.90;;;;;;4995025;28;20185;-44
2022/04/11 05:41:08;;;;;;;12.33;9.83;;;1.10;99.90;;;;;;4996110;28;20183;-44
2022/04/11 05:43:48;;;;;;;13.43;9.50;;;1.10;99.90;;;;;;5005829;28;20190;-46
2022/04/11 05:46:17;;;;;;;15.87;11.97;;;1.10;99.90;;;;;;5006999;28;20352;-45
2022/04/11 05:48:49;;;;;;;15.43;10.07;;;1.20;99.90;;;;;;5003658;28;20242;-45
2022/04/11 05:51:15;;;;;;;18.83;11.90;;;1.30;99.90;;;;;;5029211;28;20180;-45
2022/04/11 05:53:41;;;;;;;15.40;10.33;;;1.40;99.90;;;;;;4994665;28;20178;-44
2022/04/11 05:56:08;;;;;;;13.23;10.20;;;1.60;99.90;;;;;;4994426;28;20209;-45
2022/04/11 05:58:34;;;;;;;13.70;10.87;;;1.70;99.90;;;;;;5003323;28;20227;-46
2022/04/11 06:01:02;;;;;;;13.37;9.17;;;1.80;99.90;;;;;;5018823;28;20181;-45
2022/04/11 06:03:28;;;;;;;14.43;8.90;;;1.90;99.90;;;;;;4997466;28;20192;-45
2022/04/11 06:05:54;;;;;;;11.47;9.97;;;2.00;99.90;;;;;;5014084;28;20202;-44
2022/04/11 06:08:21;;;;;;;14.10;10.27;;;2.00;99.90;;;;;;4996418;28;20280;-45
2022/04/11 06:10:47;;;;;;;14.37;10.37;;;2.00;99.90;;;;;;5005043;28;20264;-45
2022/04/11 06:13:17;;;;;;;16.60;10.67;;;2.10;99.90;;;;;;5030706;28;20176;-46
2022/04/11 06:15:45;;;;;;;12.57;10.30;;;2.10;99.90;;;;;;4993342;28;20191;-46
2022/04/11 06:18:11;;;;;;;13.83;10.40;;;2.20;99.90;;;;;;5030677;28;20197;-44
2022/04/11 06:20:37;;;;;;;15.90;10.53;;;2.20;99.90;;;;;;5029003;28;20185;-44
2022/04/11 06:23:04;;;;;;;11.03;9.00;;;2.30;99.90;;;;;;5014110;28;20295;-44
2022/04/11 06:25:31;;;;;;;12.90;9.17;;;2.30;99.90;;;;;;5012006;28;20224;-44
2022/04/11 06:27:57;;;;;;;10.50;8.80;;;2.40;99.90;;;;;;5001617;28;20599;-45
2022/04/11 06:30:23;;;;;;;12.27;8.47;;;2.40;99.90;;;;;;5013282;28;20244;-44
2022/04/11 06:32:49;;;;;;;14.90;9.17;;;2.60;99.90;;;;;;4996133;28;20578;-45
2022/04/11 06:35:15;;;;;;;11.10;9.13;;;2.70;99.90;;;;;;4996768;28;20234;-44
2022/04/11 06:37:41;;;;;;;12.27;9.63;;;2.90;99.90;;;;;;5008711;28;20185;-45
2022/04/11 06:40:09;;;;;;;10.97;8.70;;;3.00;99.90;;;;;;4986643;28;20218;-46
2022/04/11 06:42:38;;;;;;;11.53;8.27;;;3.20;99.90;;;;;;5002161;28;20255;-45
2022/04/11 06:45:07;;;;;;;11.37;8.57;;;3.30;99.90;;;;;;5003666;28;20701;-45
2022/04/11 06:47:34;;;;;;;10.57;8.27;;;3.40;99.90;;;;;;5023767;28;20212;-44
2022/04/11 06:50:00;;;;;;;11.40;9.07;;;3.50;99.90;;;;;;5008528;28;20186;-45
2022/04/11 06:52:26;;;;;;;12.20;8.60;;;3.70;99.90;;;;;;5001649;28;20193;-44
2022/04/11 06:54:53;;;;;;;9.70;8.40;;;3.80;99.90;;;;;;5000005;28;20206;-46
2022/04/11 06:57:18;;;;;;;12.77;9.67;;;3.90;99.90;;;;;;5031121;28;20197;-45
2022/04/11 06:59:44;;;;;;;9.13;8.07;;;4.10;99.90;;;;;;4999229;28;20195;-46
2022/04/11 07:02:10;;;;;;;10.60;7.43;;;4.30;99.90;;;;;;4996751;28;20226;-44
2022/04/11 07:04:36;;;;;;;12.33;8.70;;;4.40;99.90;;;;;;5030828;28;20183;-46
2022/04/11 07:07:02;;;;;;;10.70;8.40;;;4.50;99.90;;;;;;5018449;28;20220;-46
2022/04/11 07:09:31;;;;;;;12.63;9.00;;;4.60;99.90;;;;;;5016553;28;20184;-44
2022/04/11 07:11:57;;;;;;;10.70;8.47;;;4.70;99.90;;;;;;5020770;28;20175;-46
2022/04/11 07:14:24;;;;;;;11.27;8.63;;;4.90;99.90;;;;;;4995890;28;20175;-45
2022/04/11 07:16:52;;;;;;;15.37;10.33;;;5.00;99.90;;;;;;5004622;28;20225;-45
2022/04/11 07:19:19;;;;;;;11.67;9.83;;;5.10;99.90;;;;;;5031786;28;20225;-45
2022/04/11 07:21:46;;;;;;;12.13;9.20;;;5.30;99.90;;;;;;5010952;28;20194;-45
2022/04/11 07:24:13;;;;;;;11.57;8.50;;;5.40;99.90;;;;;;5027150;28;20634;-46
2022/04/11 07:26:40;;;;;;;16.17;8.67;;;5.50;99.90;;;;;;4997859;28;20218;-45
2022/04/11 07:29:07;;;;;;;10.10;8.57;;;5.70;99.90;;;;;;5026632;28;20182;-45
2022/04/11 07:31:33;;;;;;;9.73;7.97;;;5.80;99.90;;;;;;5016717;28;20217;-46
2022/04/11 07:34:01;;;;;;;10.63;8.80;;;5.90;99.90;;;;;;5004017;28;20176;-46
2022/04/11 07:36:30;;;;;;;14.97;11.77;;;6.00;99.90;;;;;;5032920;28;20210;-46
2022/04/11 07:38:57;;;;;;;10.83;7.73;;;6.10;99.90;;;;;;5001226;28;20211;-45
2022/04/11 07:41:24;;;;;;;9.43;8.00;;;6.20;99.90;;;;;;5010798;28;20174;-45
2022/04/11 07:43:51;;;;;;;9.27;7.43;;;6.20;99.90;;;;;;5015624;28;20224;-45
2022/04/11 07:46:16;;;;;;;9.00;7.80;;;6.30;99.90;;;;;;5006819;28;20216;-45
2022/04/11 07:48:42;;;;;;;8.60;7.70;;;6.30;99.90;;;;;;5002450;28;20183;-45
2022/04/11 07:51:09;;;;;;;8.47;7.17;;;6.40;99.90;;;;;;5015544;28;20229;-46
2022/04/11 07:53:35;;;;;;;10.13;7.53;;;6.60;99.90;;;;;;5026417;28;20247;-45
2022/04/11 07:56:01;;;;;;;8.87;6.00;;;6.80;99.90;;;;;;5026473;28;20242;-45
2022/04/11 07:58:27;;;;;;;9.63;7.23;;;6.90;99.90;;;;;;5004593;28;20296;-45
2022/04/11 08:00:53;;;;;;;7.80;6.93;;;7.00;99.90;;;;;;5032879;28;20172;-45
2022/04/11 08:03:20;;;;;;;8.60;6.90;;;7.10;99.90;;;;;;5008478;28;20195;-45
2022/04/11 08:05:46;;;;;;;7.10;6.40;;;7.30;99.90;;;;;;4997413;28;20249;-45
2022/04/11 08:08:14;;;;;;;8.33;6.70;;;7.50;99.90;;;;;;5013928;28;20298;-45
2022/04/11 08:10:41;;;;;;;6.03;5.43;;;7.70;99.90;;;;;;4993692;28;20235;-46
2022/04/11 08:13:06;;;;;;;7.03;5.73;;;7.90;99.90;;;;;;4998788;28;20269;-45
2022/04/11 08:15:33;;;;;;;10.03;6.30;;;8.10;99.90;;;;;;5002965;28;20292;-45
2022/04/11 08:17:59;;;;;;;6.53;5.47;;;8.30;99.90;;;;;;5004120;28;20178;-45
2022/04/11 08:20:26;;;;;;;6.60;5.03;;;8.50;99.90;;;;;;5023928;28;20244;-45
2022/04/11 08:22:53;;;;;;;7.27;5.53;;;8.70;99.90;;;;;;4998621;28;20232;-46
2022/04/11 08:25:19;;;;;;;6.33;5.60;;;8.90;99.90;;;;;;5010987;28;20230;-46
2022/04/11 08:27:46;;;;;;;5.67;5.17;;;8.90;99.90;;;;;;5018503;28;20206;-45
2022/04/11 08:30:13;;;;;;;8.53;5.17;;;8.80;99.90;;;;;;5019203;28;20182;-46
2022/04/11 08:32:47;;;;;;;8.03;5.10;;;9.10;99.90;;;;;;5032770;28;20198;-45
2022/04/11 08:35:14;;;;;;;5.77;5.03;;;9.30;99.90;;;;;;4999264;28;20213;-46
2022/04/11 08:37:40;;;;;;;6.93;5.10;;;9.60;99.90;;;;;;5013422;28;20189;-46
2022/04/11 08:40:11;;;;;;;5.40;4.87;;;9.90;99.90;;;;;;5013443;28;20232;-46
2022/04/11 08:42:41;;;;;;;4.57;4.17;;;10.10;99.90;;;;;;5014267;28;20210;-46
2022/04/11 08:45:08;;;;;;;5.40;4.73;;;10.10;99.90;;;;;;5014262;28;20229;-47
2022/04/11 08:47:34;;;;;;;6.60;4.30;;;10.40;99.90;;;;;;5013791;28;20214;-47
2022/04/11 08:50:02;;;;;;;4.87;3.60;;;10.50;99.90;;;;;;4998696;28;20270;-47
2022/04/11 08:52:29;;;;;;;4.40;3.17;;;10.70;99.90;;;;;;5015439;28;20183;-47
2022/04/11 08:54:56;;;;;;;3.27;2.40;;;10.90;99.90;;;;;;4998480;28;20194;-47
2022/04/11 08:57:23;;;;;;;3.60;2.60;;;11.20;99.90;;;;;;5031622;28;20196;-47
2022/04/11 08:59:49;;;;;;;3.03;2.20;;;11.30;99.90;;;;;;5031513;28;20801;-47
2022/04/11 09:02:15;;;;;;;3.83;2.70;;;11.50;99.90;;;;;;5030783;28;20167;-47
2022/04/11 09:04:55;;;;;;;2.10;1.93;;;11.60;99.90;;;;;;5013070;28;20263;-48
2022/04/11 09:07:21;;;;;;;3.53;2.43;;;11.80;99.90;;;;;;4994419;28;20208;-48
2022/04/11 09:09:46;;;;;;;2.87;2.10;;;12.00;99.90;;;;;;4995006;28;20187;-47
2022/04/11 09:12:14;;;;;;;2.23;2.03;;;12.10;99.90;;;;;;4978682;28;20181;-47
2022/04/11 09:14:42;;;;;;;2.40;2.20;;;12.20;99.90;;;;;;4995460;28;20176;-47
2022/04/11 09:17:11;;;;;;;3.63;2.10;;;12.30;99.90;;;;;;4995480;28;20312;-47
2022/04/11 09:19:38;;;;;;;3.97;2.10;;;12.40;99.90;;;;;;4996069;28;20189;-48
2022/04/11 09:22:05;;;;;;;3.37;1.90;;;12.50;99.90;;;;;;4995165;28;20287;-47
2022/04/11 09:24:31;;;;;;;3.57;2.13;;;12.60;99.90;;;;;;4994991;28;20181;-47
2022/04/11 09:26:58;;;;;;;2.87;2.10;;;12.70;99.90;;;;;;4994855;28;20210;-47
2022/04/11 09:29:25;;;;;;;2.30;1.60;;;12.80;99.90;;;;;;5016328;28;20190;-47
2022/04/11 09:31:52;;;;;;;2.90;1.70;;;13.00;99.90;;;;;;5031078;28;20182;-47
2022/04/11 09:34:25;;;;;;;3.03;2.20;;;13.00;99.90;;;;;;5032474;28;20174;-47
2022/04/11 09:37:02;;;;;;;2.00;1.67;;;13.00;99.90;;;;;;5001397;28;20259;-46
2022/04/11 09:39:29;;;;;;;5.00;1.93;;;13.10;99.90;;;;;;4994513;28;20273;-47
2022/04/11 09:41:55;;;;;;;3.47;1.70;;;13.00;99.90;;;;;;5011238;28;20182;-47
2022/04/11 09:44:33;;;;;;;2.37;1.60;;;13.20;99.90;;;;;;5010988;28;20220;-47
2022/04/11 09:47:05;;;;;;;2.50;1.43;;;13.30;99.90;;;;;;4978427;28;20223;-47
2022/04/11 09:49:33;;;;;;;1.77;1.30;;;13.50;99.90;;;;;;5009963;28;20317;-47
2022/04/11 09:52:02;;;;;;;2.83;1.60;;;13.70;99.90;;;;;;4995875;28;20183;-47
2022/04/11 09:54:29;;;;;;;2.10;1.50;;;13.80;99.80;;;;;;4978248;28;20182;-47
2022/04/11 09:57:01;;;;;;;2.37;1.77;;;13.70;98.40;;;;;;5005005;28;20190;-47
2022/04/11 09:59:29;;;;;;;3.20;1.60;;;13.80;99.90;;;;;;5002042;28;20189;-47
2022/04/11 10:01:58;;;;;;;1.97;1.70;;;13.90;98.60;;;;;;5017643;28;20194;-47
2022/04/11 10:04:25;;;;;;;2.47;1.53;;;14.00;98.70;;;;;;5005208;28;20181;-47
2022/04/11 10:06:53;;;;;;;2.03;1.50;;;14.00;96.60;;;;;;4994125;28;20210;-48
2022/04/11 10:09:21;;;;;;;1.80;1.40;;;14.10;98.00;;;;;;5016795;28;20179;-47
2022/04/11 10:11:48;;;;;;;1.77;1.40;;;14.10;95.80;;;;;;4994414;28;20257;-47
2022/04/11 10:14:17;;;;;;;1.63;1.20;;;14.20;96.50;;;;;;5021421;28;20178;-47
2022/04/11 10:16:44;;;;;;;3.97;1.10;;;14.30;96.80;;;;;;5004631;28;20289;-47
2022/04/11 10:19:12;;;;;;;2.27;1.30;;;14.40;96.20;;;;;;5021037;28;20187;-48
2022/04/11 10:21:41;;;;;;;2.23;1.20;;;14.60;96.40;;;;;;4989454;28;20214;-47
2022/04/11 10:24:16;;;;;;;1.43;1.30;;;14.60;95.90;;;;;;5021634;28;20225;-47
2022/04/11 10:26:48;;;;;;;1.67;1.20;;;14.70;96.30;;;;;;4992248;28;20202;-48
2022/04/11 10:29:38;;;;;;;1.37;1.27;;;14.60;94.80;;;;;;5019735;28;20209;-47
2022/04/11 10:32:12;;;;;;;1.67;1.20;;;14.80;95.30;;;;;;5001499;28;20198;-47
2022/04/11 10:35:04;;;;;;;2.67;1.30;;;14.90;96.20;;;;;;4993729;28;20172;-48
2022/04/11 10:37:49;;;;;;;3.27;1.17;;;15.00;94.80;;;;;;4993060;28;20424;-46
2022/04/11 10:40:21;;;;;;;2.93;1.57;;;15.20;94.70;;;;;;4993241;28;20194;-48
2022/04/11 10:43:04;;;;;;;1.37;1.10;;;15.30;94.20;;;;;;5012647;28;20240;-47
2022/04/11 10:45:31;;;;;;;1.93;1.17;;;15.40;93.70;;;;;;5013033;28;20270;-47
2022/04/11 10:47:57;;;;;;;2.47;1.30;;;15.50;93.90;;;;;;5012651;28;20264;-47
2022/04/11 10:50:25;;;;;;;1.70;1.30;;;15.60;93.60;;;;;;5009659;28;20179;-47
2022/04/11 10:53:05;;;;;;;1.77;1.40;;;15.50;94.40;;;;;;5011394;28;20492;-47
2022/04/11 10:55:33;;;;;;;2.80;1.10;;;15.50;94.00;;;;;;5019296;28;20679;-47
2022/04/11 10:58:00;;;;;;;1.53;1.33;;;15.40;93.50;;;;;;5021212;28;20179;-47
2022/04/11 11:00:29;;;;;;;2.23;1.50;;;15.50;93.20;;;;;;5021282;28;20262;-47
2022/04/11 11:03:00;;;;;;;1.57;1.17;;;15.50;93.90;;;;;;5013495;28;20192;-47
2022/04/11 11:05:30;;;;;;;2.17;1.33;;;15.60;93.60;;;;;;5013155;28;20241;-48
2022/04/11 11:08:14;;;;;;;1.73;1.40;;;15.80;92.70;;;;;;5012954;28;20241;-47
2022/04/11 11:10:54;;;;;;;1.77;1.30;;;15.90;94.20;;;;;;5012228;28;20175;-47
2022/04/11 11:13:32;;;;;;;1.90;1.33;;;15.90;93.70;;;;;;5021091;28;20175;-47
2022/04/11 11:15:59;;;;;;;2.57;1.23;;;16.10;93.30;;;;;;5010409;28;20274;-47
2022/04/11 11:18:25;;;;;;;2.50;1.30;;;16.00;91.30;;;;;;4993572;28;20274;-48
2022/04/11 11:20:57;;;;;;;3.57;1.60;;;16.20;91.40;;;;;;4993394;28;20266;-47
2022/04/11 11:23:31;;;;;;;2.50;1.43;;;16.10;89.20;;;;;;4993657;28;20194;-48
2022/04/11 11:26:10;;;;;;;1.50;1.10;;;16.40;92.00;;;;;;4993765;28;20209;-47
2022/04/11 11:28:40;;;;;;;2.63;1.17;;;16.40;90.70;;;;;;4986128;28;20244;-47
2022/04/11 11:31:06;;;;;;;2.13;1.27;;;16.30;90.80;;;;;;5019685;28;20172;-47
2022/04/11 11:33:32;;;;;;;2.17;1.13;;;16.40;88.90;;;;;;5032801;28;20178;-47
2022/04/11 11:36:01;;;;;;;2.40;1.40;;;16.60;89.80;;;;;;5018701;28;20212;-48
2022/04/11 11:38:29;;;;;;;7.38;2.85;;;16.80;90.70;;;;;;4997193;28;20305;-47
2022/04/11 11:41:03;;;;;;;2.50;1.80;;;16.70;91.70;;;;;;5033465;28;20179;-47
2022/04/11 11:43:30;;;;;;;1.15;1.00;;;17.00;90.50;;;;;;5000372;28;20201;-47
2022/04/11 11:45:58;;;;;;;1.92;1.30;;;17.20;88.50;;;;;;5014735;28;20670;-47
2022/04/11 11:48:24;;;;;;;2.80;1.25;;;17.00;88.40;;;;;;4996522;28;20214;-47
2022/04/11 11:50:52;;;;;;;2.67;1.27;;;17.10;90.10;;;;;;4996691;28;20175;-48
2022/04/11 11:53:18;;;;;;;1.17;1.08;;;17.40;90.20;;;;;;4980498;28;20558;-48
2022/04/11 11:55:51;;;;;;;1.25;1.15;;;17.60;86.80;;;;;;5013221;28;20210;-48
2022/04/11 11:58:17;;;;;;;1.75;1.05;;;17.50;84.10;;;;;;5000065;28;20186;-48
2022/04/11 12:00:49;;;;;;;2.30;1.30;;;17.30;91.50;;;;;;5049251;28;20248;-48
2022/04/11 12:06:02;;;;;;;2.65;1.40;;;17.70;90.00;;;;;;5029029;28;20619;-47
2022/04/11 12:08:32;;;;;;;1.50;1.15;;;17.90;90.40;;;;;;4996836;28;20203;-48
2022/04/11 12:10:59;;;;;;;1.55;1.20;;;18.10;90.30;;;;;;4996567;28;20182;-47
2022/04/11 12:13:30;;;;;;;2.60;1.33;;;18.10;87.90;;;;;;4996125;28;20215;-47
2022/04/11 12:16:10;;;;;;;2.17;1.27;;;18.30;87.90;;;;;;4996190;28;20290;-47
2022/04/11 12:18:53;;;;;;;1.98;1.20;;;18.40;82.40;;;;;;4995871;28;20194;-48
2022/04/11 12:21:32;;;;;;;1.20;1.10;;;18.40;85.60;;;;;;4997576;28;20187;-48
2022/04/11 12:23:58;;;;;;;1.88;1.30;;;18.60;83.70;;;;;;4996071;28;20199;-48
2022/04/11 12:26:30;;;;;;;1.38;1.20;;;18.60;84.20;;;;;;4996272;28;20218;-48
2022/04/11 12:28:56;;;;;;;1.30;1.20;;;18.80;84.90;;;;;;5010197;28;20186;-48
2022/04/11 12:31:23;;;;;;;1.55;1.23;;;18.80;80.80;;;;;;5015767;28;20179;-48
2022/04/11 12:33:51;;;;;;;1.45;1.25;;;18.60;84.30;;;;;;5033298;28;20263;-48
2022/04/11 12:36:22;;;;;;;2.08;1.20;;;18.80;83.80;;;;;;5013132;28;20191;-48
2022/04/11 12:38:52;;;;;;;2.00;1.30;;;18.80;86.70;;;;;;5015327;28;20183;-48
2022/04/11 12:41:40;;;;;;;1.73;1.20;;;18.70;86.30;;;;;;5031675;28;20257;-48
2022/04/11 12:44:11;;;;;;;1.25;1.08;;;18.80;84.50;;;;;;4998984;28;20174;-48
2022/04/11 12:46:45;;;;;;;1.90;1.23;;;19.00;84.60;;;;;;5015289;28;20210;-48
2022/04/11 12:49:16;;;;;;;2.00;1.35;;;19.20;82.40;;;;;;5015077;28;20224;-48
2022/04/11 12:51:42;;;;;;;1.60;1.10;;;19.30;79.10;;;;;;5015417;28;20178;-48
2022/04/11 12:54:13;;;;;;;2.00;1.30;;;18.90;77.50;;;;;;5020500;28;20180;-48
2022/04/11 12:56:46;;;;;;;3.22;1.20;;;18.70;81.50;;;;;;4995530;28;20499;-48
2022/04/11 12:59:29;;;;;;;1.40;1.30;;;18.90;84.70;;;;;;5023863;28;20210;-48